Terminal Aerodrome Forecast
Issued by NWS Cleveland, OH

Home | Current Version | Previous Version | Graphics & Text | Print | Product List | Glossary Off
Versions: 1 2 3 4 5 6 7 8 9 10 11 12 13 14 15 16 17 18 19 20 21 22 23 24 25

000
FTUS41 KCLE 212300
TAFTOL
TAF
KTOL 212340Z 2200/2224 23006KT P6SM BKN040
     FM220300 23005KT P6SM VCSH BKN035 OVC080
      TEMPO 2208/2212 4SM TSRA OVC025CB
     FM221200 24005KT 5SM -SHRA BR VCTS OVC025CB
     FM221500 28005KT P6SM OVC035=

USA.gov is the U.S. government's official web portal to all federal, state and local government web resources and services.